sensor_id;sensor_type;location;lat;lon;timestamp;temperature;humidity
7666;DHT22;3875;46.562;4.898;2023-04-16T00:00:51;9.60;90.60
7666;DHT22;3875;46.562;4.898;2023-04-16T00:03:17;9.60;90.60
7666;DHT22;3875;46.562;4.898;2023-04-16T00:05:42;9.60;90.50
7666;DHT22;3875;46.562;4.898;2023-04-16T00:08:08;9.60;90.30
7666;DHT22;3875;46.562;4.898;2023-04-16T00:10:34;9.60;90.30
7666;DHT22;3875;46.562;4.898;2023-04-16T00:13:00;9.60;90.20
7666;DHT22;3875;46.562;4.898;2023-04-16T00:15:25;9.50;90.20
7666;DHT22;3875;46.562;4.898;2023-04-16T00:17:51;9.50;90.20
7666;DHT22;3875;46.562;4.898;2023-04-16T00:20:17;9.50;90.20
7666;DHT22;3875;46.562;4.898;2023-04-16T00:22:44;9.50;90.10
7666;DHT22;3875;46.562;4.898;2023-04-16T00:25:10;9.50;90.00
7666;DHT22;3875;46.562;4.898;2023-04-16T00:27:36;9.50;90.00
7666;DHT22;3875;46.562;4.898;2023-04-16T00:30:01;9.40;90.00
7666;DHT22;3875;46.562;4.898;2023-04-16T00:32:28;9.40;89.90
7666;DHT22;3875;46.562;4.898;2023-04-16T00:34:54;9.40;89.90
7666;DHT22;3875;46.562;4.898;2023-04-16T00:37:20;9.40;89.90
7666;DHT22;3875;46.562;4.898;2023-04-16T00:39:45;9.40;89.80
7666;DHT22;3875;46.562;4.898;2023-04-16T00:42:11;9.30;89.80
7666;DHT22;3875;46.562;4.898;2023-04-16T00:44:37;9.30;89.90
7666;DHT22;3875;46.562;4.898;2023-04-16T00:47:03;9.30;89.90
7666;DHT22;3875;46.562;4.898;2023-04-16T00:49:29;9.20;89.90
7666;DHT22;3875;46.562;4.898;2023-04-16T00:51:55;9.30;89.80
7666;DHT22;3875;46.562;4.898;2023-04-16T00:54:21;9.20;89.80
7666;DHT22;3875;46.562;4.898;2023-04-16T00:56:47;9.20;89.70
7666;DHT22;3875;46.562;4.898;2023-04-16T00:59:13;9.20;89.70
7666;DHT22;3875;46.562;4.898;2023-04-16T01:01:39;9.20;89.60
7666;DHT22;3875;46.562;4.898;2023-04-16T01:04:04;9.20;89.60
7666;DHT22;3875;46.562;4.898;2023-04-16T01:06:31;9.20;89.60
7666;DHT22;3875;46.562;4.898;2023-04-16T01:08:57;9.10;89.60
7666;DHT22;3875;46.562;4.898;2023-04-16T01:11:22;9.10;89.60
7666;DHT22;3875;46.562;4.898;2023-04-16T01:13:48;9.10;89.60
7666;DHT22;3875;46.562;4.898;2023-04-16T01:16:14;9.10;89.60
7666;DHT22;3875;46.562;4.898;2023-04-16T01:18:39;9.00;89.60
7666;DHT22;3875;46.562;4.898;2023-04-16T01:21:05;9.00;89.60
7666;DHT22;3875;46.562;4.898;2023-04-16T01:23:31;9.00;89.50
7666;DHT22;3875;46.562;4.898;2023-04-16T01:25:57;9.00;89.30
7666;DHT22;3875;46.562;4.898;2023-04-16T01:28:22;9.10;89.10
7666;DHT22;3875;46.562;4.898;2023-04-16T01:30:48;9.00;88.80
7666;DHT22;3875;46.562;4.898;2023-04-16T01:33:14;9.00;89.00
7666;DHT22;3875;46.562;4.898;2023-04-16T01:35:40;9.00;88.80
7666;DHT22;3875;46.562;4.898;2023-04-16T01:38:07;9.00;88.70
7666;DHT22;3875;46.562;4.898;2023-04-16T01:40:34;9.00;88.60
7666;DHT22;3875;46.562;4.898;2023-04-16T01:43:00;9.00;88.60
7666;DHT22;3875;46.562;4.898;2023-04-16T01:45:26;9.00;88.60
7666;DHT22;3875;46.562;4.898;2023-04-16T01:47:52;9.00;88.50
7666;DHT22;3875;46.562;4.898;2023-04-16T01:50:18;8.90;88.30
7666;DHT22;3875;46.562;4.898;2023-04-16T01:52:44;8.90;88.30
7666;DHT22;3875;46.562;4.898;2023-04-16T01:55:10;8.90;88.20
7666;DHT22;3875;46.562;4.898;2023-04-16T01:57:36;8.90;88.20
7666;DHT22;3875;46.562;4.898;2023-04-16T02:00:03;8.90;88.20
7666;DHT22;3875;46.562;4.898;2023-04-16T02:02:29;8.80;88.20
7666;DHT22;3875;46.562;4.898;2023-04-16T02:04:55;8.80;88.20
7666;DHT22;3875;46.562;4.898;2023-04-16T02:07:22;8.80;88.10
7666;DHT22;3875;46.562;4.898;2023-04-16T02:09:47;8.80;88.00
7666;DHT22;3875;46.562;4.898;2023-04-16T02:12:15;8.80;87.90
7666;DHT22;3875;46.562;4.898;2023-04-16T02:14:40;8.80;87.90
7666;DHT22;3875;46.562;4.898;2023-04-16T02:17:06;8.70;87.90
7666;DHT22;3875;46.562;4.898;2023-04-16T02:19:32;8.70;87.80
7666;DHT22;3875;46.562;4.898;2023-04-16T02:21:57;8.70;87.80
7666;DHT22;3875;46.562;4.898;2023-04-16T02:24:25;8.70;87.60
7666;DHT22;3875;46.562;4.898;2023-04-16T02:26:51;8.60;87.70
7666;DHT22;3875;46.562;4.898;2023-04-16T02:29:17;8.60;87.60
7666;DHT22;3875;46.562;4.898;2023-04-16T02:31:42;8.60;87.70
7666;DHT22;3875;46.562;4.898;2023-04-16T02:34:08;8.60;87.70
7666;DHT22;3875;46.562;4.898;2023-04-16T02:36:34;8.60;87.70
7666;DHT22;3875;46.562;4.898;2023-04-16T02:39:00;8.60;87.70
7666;DHT22;3875;46.562;4.898;2023-04-16T02:41:25;8.60;87.70
7666;DHT22;3875;46.562;4.898;2023-04-16T02:43:51;8.60;87.70
7666;DHT22;3875;46.562;4.898;2023-04-16T02:46:17;8.60;87.70
7666;DHT22;3875;46.562;4.898;2023-04-16T02:48:42;8.50;87.70
7666;DHT22;3875;46.562;4.898;2023-04-16T02:51:08;8.50;87.70
7666;DHT22;3875;46.562;4.898;2023-04-16T02:53:34;8.50;87.70
7666;DHT22;3875;46.562;4.898;2023-04-16T02:55:59;8.40;87.60
7666;DHT22;3875;46.562;4.898;2023-04-16T02:58:26;8.40;87.60
7666;DHT22;3875;46.562;4.898;2023-04-16T03:00:53;8.40;87.50
7666;DHT22;3875;46.562;4.898;2023-04-16T03:03:19;8.30;87.50
7666;DHT22;3875;46.562;4.898;2023-04-16T03:05:45;8.30;87.50
7666;DHT22;3875;46.562;4.898;2023-04-16T03:08:11;8.30;87.50
7666;DHT22;3875;46.562;4.898;2023-04-16T03:10:37;8.30;87.40
7666;DHT22;3875;46.562;4.898;2023-04-16T03:13:03;8.30;87.40
7666;DHT22;3875;46.562;4.898;2023-04-16T03:15:29;8.30;87.40
7666;DHT22;3875;46.562;4.898;2023-04-16T03:17:55;8.20;87.50
7666;DHT22;3875;46.562;4.898;2023-04-16T03:20:22;8.20;87.50
7666;DHT22;3875;46.562;4.898;2023-04-16T03:22:48;8.20;87.50
7666;DHT22;3875;46.562;4.898;2023-04-16T03:25:14;8.20;87.40
7666;DHT22;3875;46.562;4.898;2023-04-16T03:27:39;8.20;87.40
7666;DHT22;3875;46.562;4.898;2023-04-16T03:30:06;8.10;87.30
7666;DHT22;3875;46.562;4.898;2023-04-16T03:32:32;8.10;87.30
7666;DHT22;3875;46.562;4.898;2023-04-16T03:34:58;8.10;87.40
7666;DHT22;3875;46.562;4.898;2023-04-16T03:37:24;8.00;87.40
7666;DHT22;3875;46.562;4.898;2023-04-16T03:39:50;8.00;87.40
7666;DHT22;3875;46.562;4.898;2023-04-16T03:42:15;8.00;87.40
7666;DHT22;3875;46.562;4.898;2023-04-16T03:44:41;7.90;87.50
7666;DHT22;3875;46.562;4.898;2023-04-16T03:47:07;7.90;87.50
7666;DHT22;3875;46.562;4.898;2023-04-16T03:49:32;7.90;87.60
7666;DHT22;3875;46.562;4.898;2023-04-16T03:51:58;7.80;87.70
7666;DHT22;3875;46.562;4.898;2023-04-16T03:54:24;7.80;87.80
7666;DHT22;3875;46.562;4.898;2023-04-16T03:56:49;7.70;87.90
7666;DHT22;3875;46.562;4.898;2023-04-16T03:59:16;7.70;88.00
7666;DHT22;3875;46.562;4.898;2023-04-16T04:01:42;7.70;88.00
7666;DHT22;3875;46.562;4.898;2023-04-16T04:04:08;7.60;88.10
7666;DHT22;3875;46.562;4.898;2023-04-16T04:06:34;7.60;88.20
7666;DHT22;3875;46.562;4.898;2023-04-16T04:09:00;7.60;88.30
7666;DHT22;3875;46.562;4.898;2023-04-16T04:11:25;7.60;88.40
7666;DHT22;3875;46.562;4.898;2023-04-16T04:13:51;7.60;88.50
7666;DHT22;3875;46.562;4.898;2023-04-16T04:16:16;7.60;88.40
7666;DHT22;3875;46.562;4.898;2023-04-16T04:18:42;7.60;88.50
7666;DHT22;3875;46.562;4.898;2023-04-16T04:21:11;7.60;88.30
7666;DHT22;3875;46.562;4.898;2023-04-16T04:23:37;7.50;88.40
7666;DHT22;3875;46.562;4.898;2023-04-16T04:26:02;7.50;88.50
7666;DHT22;3875;46.562;4.898;2023-04-16T04:28:30;7.50;88.60
7666;DHT22;3875;46.562;4.898;2023-04-16T04:30:57;7.50;88.70
7666;DHT22;3875;46.562;4.898;2023-04-16T04:33:24;7.50;88.70
7666;DHT22;3875;46.562;4.898;2023-04-16T04:35:50;7.50;88.70
7666;DHT22;3875;46.562;4.898;2023-04-16T04:38:15;7.50;88.70
7666;DHT22;3875;46.562;4.898;2023-04-16T04:40:44;7.50;88.60
7666;DHT22;3875;46.562;4.898;2023-04-16T04:43:10;7.50;88.50
7666;DHT22;3875;46.562;4.898;2023-04-16T04:45:36;7.50;88.50
7666;DHT22;3875;46.562;4.898;2023-04-16T04:48:02;7.40;88.60
7666;DHT22;3875;46.562;4.898;2023-04-16T04:50:27;7.40;88.80
7666;DHT22;3875;46.562;4.898;2023-04-16T04:52:53;7.40;88.70
7666;DHT22;3875;46.562;4.898;2023-04-16T04:55:19;7.40;88.70
7666;DHT22;3875;46.562;4.898;2023-04-16T04:57:44;7.30;89.00
7666;DHT22;3875;46.562;4.898;2023-04-16T05:00:10;7.40;89.10
7666;DHT22;3875;46.562;4.898;2023-04-16T05:02:36;7.30;89.20
7666;DHT22;3875;46.562;4.898;2023-04-16T05:05:03;7.40;89.20
7666;DHT22;3875;46.562;4.898;2023-04-16T05:07:29;7.40;89.20
7666;DHT22;3875;46.562;4.898;2023-04-16T05:09:55;7.30;89.30
7666;DHT22;3875;46.562;4.898;2023-04-16T05:12:21;7.40;89.30
7666;DHT22;3875;46.562;4.898;2023-04-16T05:14:46;7.40;89.20
7666;DHT22;3875;46.562;4.898;2023-04-16T05:17:12;7.40;89.20
7666;DHT22;3875;46.562;4.898;2023-04-16T05:19:38;7.50;89.20
7666;DHT22;3875;46.562;4.898;2023-04-16T05:22:03;7.50;89.10
7666;DHT22;3875;46.562;4.898;2023-04-16T05:24:29;7.60;89.00
7666;DHT22;3875;46.562;4.898;2023-04-16T05:26:55;7.60;89.00
7666;DHT22;3875;46.562;4.898;2023-04-16T05:29:21;7.60;88.90
7666;DHT22;3875;46.562;4.898;2023-04-16T05:31:47;7.70;89.00
7666;DHT22;3875;46.562;4.898;2023-04-16T05:34:13;7.80;88.80
7666;DHT22;3875;46.562;4.898;2023-04-16T05:36:38;7.80;88.80
7666;DHT22;3875;46.562;4.898;2023-04-16T05:39:04;7.90;88.60
7666;DHT22;3875;46.562;4.898;2023-04-16T05:41:30;8.00;88.70
7666;DHT22;3875;46.562;4.898;2023-04-16T05:43:56;8.10;88.50
7666;DHT22;3875;46.562;4.898;2023-04-16T05:46:21;8.10;88.40
7666;DHT22;3875;46.562;4.898;2023-04-16T05:48:47;8.30;88.20
7666;DHT22;3875;46.562;4.898;2023-04-16T05:51:12;8.30;87.90
7666;DHT22;3875;46.562;4.898;2023-04-16T05:53:38;8.30;87.70
7666;DHT22;3875;46.562;4.898;2023-04-16T05:56:04;8.30;87.60
7666;DHT22;3875;46.562;4.898;2023-04-16T05:58:30;8.40;87.80
7666;DHT22;3875;46.562;4.898;2023-04-16T06:00:55;8.50;87.90
7666;DHT22;3875;46.562;4.898;2023-04-16T06:03:21;8.70;87.50
7666;DHT22;3875;46.562;4.898;2023-04-16T06:05:47;8.80;87.00
7666;DHT22;3875;46.562;4.898;2023-04-16T06:08:12;8.90;87.10
7666;DHT22;3875;46.562;4.898;2023-04-16T06:10:38;9.00;86.70
7666;DHT22;3875;46.562;4.898;2023-04-16T06:13:04;9.00;86.10
7666;DHT22;3875;46.562;4.898;2023-04-16T06:15:30;9.10;86.30
7666;DHT22;3875;46.562;4.898;2023-04-16T06:17:55;9.20;86.30
7666;DHT22;3875;46.562;4.898;2023-04-16T06:20:21;9.40;86.10
7666;DHT22;3875;46.562;4.898;2023-04-16T06:22:47;9.40;85.30
7666;DHT22;3875;46.562;4.898;2023-04-16T06:25:12;9.40;84.90
7666;DHT22;3875;46.562;4.898;2023-04-16T06:27:38;9.40;84.90
7666;DHT22;3875;46.562;4.898;2023-04-16T06:30:09;9.30;84.60
7666;DHT22;3875;46.562;4.898;2023-04-16T06:32:35;9.40;84.90
7666;DHT22;3875;46.562;4.898;2023-04-16T06:35:04;9.50;85.00
7666;DHT22;3875;46.562;4.898;2023-04-16T06:37:30;9.60;84.80
7666;DHT22;3875;46.562;4.898;2023-04-16T06:39:56;9.70;84.10
7666;DHT22;3875;46.562;4.898;2023-04-16T06:42:22;9.90;84.30
7666;DHT22;3875;46.562;4.898;2023-04-16T06:44:47;10.20;84.20
7666;DHT22;3875;46.562;4.898;2023-04-16T06:47:13;10.10;82.70
7666;DHT22;3875;46.562;4.898;2023-04-16T06:49:39;10.10;83.40
7666;DHT22;3875;46.562;4.898;2023-04-16T06:52:05;10.10;83.10
7666;DHT22;3875;46.562;4.898;2023-04-16T06:54:31;10.20;83.10
7666;DHT22;3875;46.562;4.898;2023-04-16T06:56:56;10.20;83.20
7666;DHT22;3875;46.562;4.898;2023-04-16T06:59:22;10.10;83.30
7666;DHT22;3875;46.562;4.898;2023-04-16T07:01:48;10.10;83.00
7666;DHT22;3875;46.562;4.898;2023-04-16T07:04:13;9.90;83.10
7666;DHT22;3875;46.562;4.898;2023-04-16T07:06:39;9.80;83.30
7666;DHT22;3875;46.562;4.898;2023-04-16T07:09:05;9.80;84.00
7666;DHT22;3875;46.562;4.898;2023-04-16T07:11:30;9.80;83.80
7666;DHT22;3875;46.562;4.898;2023-04-16T07:13:56;9.80;83.60
7666;DHT22;3875;46.562;4.898;2023-04-16T07:16:23;9.70;83.60
7666;DHT22;3875;46.562;4.898;2023-04-16T07:18:49;9.60;83.70
7666;DHT22;3875;46.562;4.898;2023-04-16T07:21:14;9.70;84.20
7666;DHT22;3875;46.562;4.898;2023-04-16T07:23:40;9.80;84.00
7666;DHT22;3875;46.562;4.898;2023-04-16T07:26:06;10.10;82.90
7666;DHT22;3875;46.562;4.898;2023-04-16T07:28:32;10.30;83.00
7666;DHT22;3875;46.562;4.898;2023-04-16T07:30:57;10.50;81.70
7666;DHT22;3875;46.562;4.898;2023-04-16T07:33:23;10.70;82.10
7666;DHT22;3875;46.562;4.898;2023-04-16T07:35:49;11.20;82.10
7666;DHT22;3875;46.562;4.898;2023-04-16T07:38:15;11.60;80.90
7666;DHT22;3875;46.562;4.898;2023-04-16T07:40:44;11.80;78.50
7666;DHT22;3875;46.562;4.898;2023-04-16T07:43:09;11.90;79.00
7666;DHT22;3875;46.562;4.898;2023-04-16T07:45:35;12.00;79.40
7666;DHT22;3875;46.562;4.898;2023-04-16T07:48:01;12.10;78.50
7666;DHT22;3875;46.562;4.898;2023-04-16T07:50:26;11.90;78.20
7666;DHT22;3875;46.562;4.898;2023-04-16T07:52:52;11.30;77.70
7666;DHT22;3875;46.562;4.898;2023-04-16T07:55:18;11.10;79.50
7666;DHT22;3875;46.562;4.898;2023-04-16T07:57:44;10.90;80.10
7666;DHT22;3875;46.562;4.898;2023-04-16T08:00:10;10.90;80.70
7666;DHT22;3875;46.562;4.898;2023-04-16T08:02:36;10.70;80.70
7666;DHT22;3875;46.562;4.898;2023-04-16T08:05:02;10.80;81.30
7666;DHT22;3875;46.562;4.898;2023-04-16T08:07:28;11.20;81.10
7666;DHT22;3875;46.562;4.898;2023-04-16T08:09:54;11.30;80.50
7666;DHT22;3875;46.562;4.898;2023-04-16T08:12:20;11.20;80.30
7666;DHT22;3875;46.562;4.898;2023-04-16T08:14:46;11.10;80.60
7666;DHT22;3875;46.562;4.898;2023-04-16T08:17:13;11.00;80.70
7666;DHT22;3875;46.562;4.898;2023-04-16T08:19:39;10.80;80.70
7666;DHT22;3875;46.562;4.898;2023-04-16T08:22:05;10.80;81.30
7666;DHT22;3875;46.562;4.898;2023-04-16T08:24:31;10.80;81.50
7666;DHT22;3875;46.562;4.898;2023-04-16T08:26:56;10.80;81.30
7666;DHT22;3875;46.562;4.898;2023-04-16T08:29:22;10.70;81.00
7666;DHT22;3875;46.562;4.898;2023-04-16T08:31:51;10.50;81.70
7666;DHT22;3875;46.562;4.898;2023-04-16T08:34:17;10.40;81.70
7666;DHT22;3875;46.562;4.898;2023-04-16T08:36:43;10.20;82.10
7666;DHT22;3875;46.562;4.898;2023-04-16T08:39:08;10.10;82.70
7666;DHT22;3875;46.562;4.898;2023-04-16T08:41:37;10.20;83.00
7666;DHT22;3875;46.562;4.898;2023-04-16T08:44:08;10.30;83.10
7666;DHT22;3875;46.562;4.898;2023-04-16T08:46:37;10.30;82.40
7666;DHT22;3875;46.562;4.898;2023-04-16T08:49:06;10.30;82.20
7666;DHT22;3875;46.562;4.898;2023-04-16T08:51:34;10.20;82.60
7666;DHT22;3875;46.562;4.898;2023-04-16T08:54:07;10.20;82.60
7666;DHT22;3875;46.562;4.898;2023-04-16T08:56:35;10.30;82.90
7666;DHT22;3875;46.562;4.898;2023-04-16T08:59:02;10.30;82.70
7666;DHT22;3875;46.562;4.898;2023-04-16T09:01:31;10.30;82.80
7666;DHT22;3875;46.562;4.898;2023-04-16T09:03:58;10.30;82.90
7666;DHT22;3875;46.562;4.898;2023-04-16T09:06:27;10.40;82.90
7666;DHT22;3875;46.562;4.898;2023-04-16T09:08:53;10.40;82.50
7666;DHT22;3875;46.562;4.898;2023-04-16T09:11:19;10.30;82.50
7666;DHT22;3875;46.562;4.898;2023-04-16T09:13:46;10.30;82.40
7666;DHT22;3875;46.562;4.898;2023-04-16T09:16:13;10.30;82.80
7666;DHT22;3875;46.562;4.898;2023-04-16T09:18:39;10.40;82.90
7666;DHT22;3875;46.562;4.898;2023-04-16T09:21:05;10.40;82.90
7666;DHT22;3875;46.562;4.898;2023-04-16T09:23:32;10.50;82.80
7666;DHT22;3875;46.562;4.898;2023-04-16T09:25:58;10.50;82.70
7666;DHT22;3875;46.562;4.898;2023-04-16T09:28:43;10.60;82.70
7666;DHT22;3875;46.562;4.898;2023-04-16T09:31:13;10.60;81.90
7666;DHT22;3875;46.562;4.898;2023-04-16T09:33:40;10.50;82.00
7666;DHT22;3875;46.562;4.898;2023-04-16T09:36:07;10.50;82.10
7666;DHT22;3875;46.562;4.898;2023-04-16T09:38:49;10.50;82.10
7666;DHT22;3875;46.562;4.898;2023-04-16T09:41:15;10.40;82.00
7666;DHT22;3875;46.562;4.898;2023-04-16T09:43:52;10.40;82.60
7666;DHT22;3875;46.562;4.898;2023-04-16T09:46:19;10.30;82.80
7666;DHT22;3875;46.562;4.898;2023-04-16T09:48:45;10.30;82.40
7666;DHT22;3875;46.562;4.898;2023-04-16T09:51:11;10.40;82.70
7666;DHT22;3875;46.562;4.898;2023-04-16T09:53:37;10.40;82.30
7666;DHT22;3875;46.562;4.898;2023-04-16T09:56:05;10.40;82.00
7666;DHT22;3875;46.562;4.898;2023-04-16T09:58:31;10.40;82.50
7666;DHT22;3875;46.562;4.898;2023-04-16T10:01:01;10.30;83.00
7666;DHT22;3875;46.562;4.898;2023-04-16T10:03:35;10.30;82.70
7666;DHT22;3875;46.562;4.898;2023-04-16T10:06:15;10.30;83.20
7666;DHT22;3875;46.562;4.898;2023-04-16T10:08:50;10.20;82.90
7666;DHT22;3875;46.562;4.898;2023-04-16T10:11:18;10.20;83.20
7666;DHT22;3875;46.562;4.898;2023-04-16T10:13:44;10.20;83.50
7666;DHT22;3875;46.562;4.898;2023-04-16T10:16:10;10.30;83.50
7666;DHT22;3875;46.562;4.898;2023-04-16T10:18:39;10.30;83.50
7666;DHT22;3875;46.562;4.898;2023-04-16T10:21:05;10.30;83.10
7666;DHT22;3875;46.562;4.898;2023-04-16T10:23:32;10.30;83.00
7666;DHT22;3875;46.562;4.898;2023-04-16T10:25:59;10.20;83.20
7666;DHT22;3875;46.562;4.898;2023-04-16T10:28:25;10.20;83.30
7666;DHT22;3875;46.562;4.898;2023-04-16T10:30:55;10.20;83.40
7666;DHT22;3875;46.562;4.898;2023-04-16T10:33:32;10.30;83.20
7666;DHT22;3875;46.562;4.898;2023-04-16T10:36:09;10.20;83.40
7666;DHT22;3875;46.562;4.898;2023-04-16T10:38:41;10.10;83.80
7666;DHT22;3875;46.562;4.898;2023-04-16T10:41:09;10.20;84.30
7666;DHT22;3875;46.562;4.898;2023-04-16T10:44:04;10.20;84.10
7666;DHT22;3875;46.562;4.898;2023-04-16T10:46:36;10.20;84.00
7666;DHT22;3875;46.562;4.898;2023-04-16T10:49:23;10.30;84.30
7666;DHT22;3875;46.562;4.898;2023-04-16T10:54:22;10.40;84.50
7666;DHT22;3875;46.562;4.898;2023-04-16T10:56:49;10.40;83.80
7666;DHT22;3875;46.562;4.898;2023-04-16T10:59:18;10.50;83.80
7666;DHT22;3875;46.562;4.898;2023-04-16T11:01:53;10.50;84.50
7666;DHT22;3875;46.562;4.898;2023-04-16T11:09:54;10.40;84.20
7666;DHT22;3875;46.562;4.898;2023-04-16T11:17:37;10.30;84.40
7666;DHT22;3875;46.562;4.898;2023-04-16T11:22:42;10.30;84.40
7666;DHT22;3875;46.562;4.898;2023-04-16T11:25:10;10.20;84.70
7666;DHT22;3875;46.562;4.898;2023-04-16T11:27:35;10.10;85.10
7666;DHT22;3875;46.562;4.898;2023-04-16T11:30:03;10.10;85.20
7666;DHT22;3875;46.562;4.898;2023-04-16T11:32:34;9.90;85.30
7666;DHT22;3875;46.562;4.898;2023-04-16T11:35:14;9.80;86.00
7666;DHT22;3875;46.562;4.898;2023-04-16T11:37:41;10.00;86.30
7666;DHT22;3875;46.562;4.898;2023-04-16T11:40:07;10.10;85.80
7666;DHT22;3875;46.562;4.898;2023-04-16T11:42:35;10.10;85.70
7666;DHT22;3875;46.562;4.898;2023-04-16T11:45:08;10.10;85.40
7666;DHT22;3875;46.562;4.898;2023-04-16T11:47:44;10.10;85.60
7666;DHT22;3875;46.562;4.898;2023-04-16T11:50:24;10.10;85.70
7666;DHT22;3875;46.562;4.898;2023-04-16T11:52:51;10.10;85.60
7666;DHT22;3875;46.562;4.898;2023-04-16T11:55:17;10.00;85.90
7666;DHT22;3875;46.562;4.898;2023-04-16T11:57:43;10.10;86.10
7666;DHT22;3875;46.562;4.898;2023-04-16T12:00:10;10.20;86.00
7666;DHT22;3875;46.562;4.898;2023-04-16T12:02:44;10.10;85.80
7666;DHT22;3875;46.562;4.898;2023-04-16T12:05:35;10.10;86.30
7666;DHT22;3875;46.562;4.898;2023-04-16T12:08:04;10.10;85.90
7666;DHT22;3875;46.562;4.898;2023-04-16T12:10:33;10.10;86.10
7666;DHT22;3875;46.562;4.898;2023-04-16T12:13:15;10.10;86.40
7666;DHT22;3875;46.562;4.898;2023-04-16T12:15:49;10.10;86.20
7666;DHT22;3875;46.562;4.898;2023-04-16T12:18:16;10.10;86.10
7666;DHT22;3875;46.562;4.898;2023-04-16T12:20:43;10.10;86.30
7666;DHT22;3875;46.562;4.898;2023-04-16T12:23:10;10.10;86.30
7666;DHT22;3875;46.562;4.898;2023-04-16T12:25:46;10.10;86.30
7666;DHT22;3875;46.562;4.898;2023-04-16T12:28:14;10.20;86.20
7666;DHT22;3875;46.562;4.898;2023-04-16T12:30:48;10.20;86.00
7666;DHT22;3875;46.562;4.898;2023-04-16T12:33:18;10.20;85.70
7666;DHT22;3875;46.562;4.898;2023-04-16T12:35:44;10.20;86.10
7666;DHT22;3875;46.562;4.898;2023-04-16T12:38:10;10.30;86.10
7666;DHT22;3875;46.562;4.898;2023-04-16T12:40:37;10.30;85.90
7666;DHT22;3875;46.562;4.898;2023-04-16T12:43:02;10.30;85.70
7666;DHT22;3875;46.562;4.898;2023-04-16T12:45:28;10.20;85.70
7666;DHT22;3875;46.562;4.898;2023-04-16T12:47:54;10.20;85.60
7666;DHT22;3875;46.562;4.898;2023-04-16T12:50:20;10.20;85.90
7666;DHT22;3875;46.562;4.898;2023-04-16T12:52:46;10.10;85.90
7666;DHT22;3875;46.562;4.898;2023-04-16T12:55:12;10.10;85.70
7666;DHT22;3875;46.562;4.898;2023-04-16T12:57:38;10.10;86.10
7666;DHT22;3875;46.562;4.898;2023-04-16T13:00:05;10.10;86.00
7666;DHT22;3875;46.562;4.898;2023-04-16T13:02:31;10.10;86.30
7666;DHT22;3875;46.562;4.898;2023-04-16T13:04:57;10.10;86.30
7666;DHT22;3875;46.562;4.898;2023-04-16T13:07:23;10.10;86.00
7666;DHT22;3875;46.562;4.898;2023-04-16T13:09:51;10.10;85.90
7666;DHT22;3875;46.562;4.898;2023-04-16T13:12:17;10.20;86.30
7666;DHT22;3875;46.562;4.898;2023-04-16T13:14:43;10.30;86.20
7666;DHT22;3875;46.562;4.898;2023-04-16T13:17:08;10.30;85.50
7666;DHT22;3875;46.562;4.898;2023-04-16T13:19:34;10.40;85.90
7666;DHT22;3875;46.562;4.898;2023-04-16T13:22:00;10.50;85.80
7666;DHT22;3875;46.562;4.898;2023-04-16T13:24:26;10.50;85.50
7666;DHT22;3875;46.562;4.898;2023-04-16T13:26:52;10.50;85.30
7666;DHT22;3875;46.562;4.898;2023-04-16T13:29:18;10.50;85.30
7666;DHT22;3875;46.562;4.898;2023-04-16T13:31:45;10.40;85.10
7666;DHT22;3875;46.562;4.898;2023-04-16T13:34:11;10.40;85.60
7666;DHT22;3875;46.562;4.898;2023-04-16T13:36:36;10.40;85.90
7666;DHT22;3875;46.562;4.898;2023-04-16T13:39:02;10.40;85.70
7666;DHT22;3875;46.562;4.898;2023-04-16T13:41:35;10.40;85.40
7666;DHT22;3875;46.562;4.898;2023-04-16T13:44:01;10.30;85.60
7666;DHT22;3875;46.562;4.898;2023-04-16T13:46:26;10.30;85.80
7666;DHT22;3875;46.562;4.898;2023-04-16T13:48:53;10.30;85.80
7666;DHT22;3875;46.562;4.898;2023-04-16T13:51:19;10.20;86.10
7666;DHT22;3875;46.562;4.898;2023-04-16T13:53:44;10.20;86.20
7666;DHT22;3875;46.562;4.898;2023-04-16T13:56:11;10.20;86.30
7666;DHT22;3875;46.562;4.898;2023-04-16T13:58:37;10.30;86.20
7666;DHT22;3875;46.562;4.898;2023-04-16T14:01:02;10.30;86.20
7666;DHT22;3875;46.562;4.898;2023-04-16T14:03:28;10.20;86.10
7666;DHT22;3875;46.562;4.898;2023-04-16T14:05:53;10.20;86.50
7666;DHT22;3875;46.562;4.898;2023-04-16T14:08:19;10.10;86.50
7666;DHT22;3875;46.562;4.898;2023-04-16T14:10:48;10.10;86.80
7666;DHT22;3875;46.562;4.898;2023-04-16T14:13:14;10.00;87.20
7666;DHT22;3875;46.562;4.898;2023-04-16T14:15:40;10.00;87.50
7666;DHT22;3875;46.562;4.898;2023-04-16T14:18:06;10.00;87.70
7666;DHT22;3875;46.562;4.898;2023-04-16T14:20:31;10.10;87.40
7666;DHT22;3875;46.562;4.898;2023-04-16T14:22:57;10.10;87.30
7666;DHT22;3875;46.562;4.898;2023-04-16T14:25:23;10.20;86.90
7666;DHT22;3875;46.562;4.898;2023-04-16T14:27:49;10.30;87.10
7666;DHT22;3875;46.562;4.898;2023-04-16T14:30:15;10.30;86.80
7666;DHT22;3875;46.562;4.898;2023-04-16T14:32:41;10.30;86.40
7666;DHT22;3875;46.562;4.898;2023-04-16T14:35:07;10.20;86.80
7666;DHT22;3875;46.562;4.898;2023-04-16T14:37:35;10.30;86.80
7666;DHT22;3875;46.562;4.898;2023-04-16T14:40:01;10.30;86.40
7666;DHT22;3875;46.562;4.898;2023-04-16T14:42:32;10.20;86.50
7666;DHT22;3875;46.562;4.898;2023-04-16T14:44:57;10.10;87.10
7666;DHT22;3875;46.562;4.898;2023-04-16T14:47:23;10.20;87.20
7666;DHT22;3875;46.562;4.898;2023-04-16T14:49:49;10.20;87.20
7666;DHT22;3875;46.562;4.898;2023-04-16T14:52:15;10.10;87.10
7666;DHT22;3875;46.562;4.898;2023-04-16T14:54:41;10.00;87.10
7666;DHT22;3875;46.562;4.898;2023-04-16T14:57:06;9.90;87.70
7666;DHT22;3875;46.562;4.898;2023-04-16T14:59:32;9.90;87.90
7666;DHT22;3875;46.562;4.898;2023-04-16T15:01:58;9.90;88.30
7666;DHT22;3875;46.562;4.898;2023-04-16T15:04:24;10.00;87.60
7666;DHT22;3875;46.562;4.898;2023-04-16T15:06:50;10.10;87.40
7666;DHT22;3875;46.562;4.898;2023-04-16T15:09:15;10.20;87.40
7666;DHT22;3875;46.562;4.898;2023-04-16T15:11:41;10.20;87.20
7666;DHT22;3875;46.562;4.898;2023-04-16T15:14:07;10.20;86.70
7666;DHT22;3875;46.562;4.898;2023-04-16T15:16:32;10.20;87.10
7666;DHT22;3875;46.562;4.898;2023-04-16T15:18:58;10.10;86.90
7666;DHT22;3875;46.562;4.898;2023-04-16T15:21:25;10.10;87.00
7666;DHT22;3875;46.562;4.898;2023-04-16T15:23:53;10.10;87.20
7666;DHT22;3875;46.562;4.898;2023-04-16T15:26:18;10.10;87.20
7666;DHT22;3875;46.562;4.898;2023-04-16T15:28:44;10.10;87.30
7666;DHT22;3875;46.562;4.898;2023-04-16T15:31:10;10.00;87.40
7666;DHT22;3875;46.562;4.898;2023-04-16T15:33:36;10.00;87.50
7666;DHT22;3875;46.562;4.898;2023-04-16T15:36:01;10.00;87.60
7666;DHT22;3875;46.562;4.898;2023-04-16T15:38:28;9.90;87.80
7666;DHT22;3875;46.562;4.898;2023-04-16T15:40:57;9.90;87.70
7666;DHT22;3875;46.562;4.898;2023-04-16T15:43:26;9.90;87.80
7666;DHT22;3875;46.562;4.898;2023-04-16T15:45:52;9.90;87.80
7666;DHT22;3875;46.562;4.898;2023-04-16T15:48:17;10.00;87.70
7666;DHT22;3875;46.562;4.898;2023-04-16T15:50:43;9.90;87.30
7666;DHT22;3875;46.562;4.898;2023-04-16T15:53:09;9.90;87.70
7666;DHT22;3875;46.562;4.898;2023-04-16T15:55:34;9.90;87.60
7666;DHT22;3875;46.562;4.898;2023-04-16T15:58:00;10.00;87.70
7666;DHT22;3875;46.562;4.898;2023-04-16T16:00:26;10.00;87.40
7666;DHT22;3875;46.562;4.898;2023-04-16T16:02:52;10.00;87.20
7666;DHT22;3875;46.562;4.898;2023-04-16T16:05:18;9.90;87.20
7666;DHT22;3875;46.562;4.898;2023-04-16T16:07:43;9.90;87.20
7666;DHT22;3875;46.562;4.898;2023-04-16T16:10:09;9.80;87.50
7666;DHT22;3875;46.562;4.898;2023-04-16T16:12:37;9.80;87.70
7666;DHT22;3875;46.562;4.898;2023-04-16T16:15:04;9.90;87.80
7666;DHT22;3875;46.562;4.898;2023-04-16T16:17:31;9.90;87.50
7666;DHT22;3875;46.562;4.898;2023-04-16T16:19:57;9.90;87.50
7666;DHT22;3875;46.562;4.898;2023-04-16T16:22:23;9.80;87.20